createdAt,value
2022-12-04T00:01:06.034Z,0.00
2022-12-04T00:03:34.096Z,0.00
2022-12-04T00:06:09.661Z,0.00
2022-12-04T00:08:38.467Z,0.00
2022-12-04T00:11:17.434Z,0.00
2022-12-04T00:13:45.907Z,0.10
2022-12-04T00:16:17.193Z,0.10
2022-12-04T00:18:45.961Z,0.10
2022-12-04T00:21:17.230Z,0.10
2022-12-04T00:23:55.434Z,0.10
2022-12-04T00:26:25.587Z,0.00
2022-12-04T00:28:54.388Z,0.00
2022-12-04T00:31:24.986Z,0.00
2022-12-04T00:33:54.053Z,0.00
2022-12-04T00:36:25.183Z,0.00
2022-12-04T00:38:53.647Z,-0.10
2022-12-04T00:41:23.919Z,0.00
2022-12-04T00:43:56.972Z,-0.10
2022-12-04T00:46:25.319Z,-0.20
2022-12-04T00:48:53.932Z,-0.20
2022-12-04T00:51:25.495Z,-0.20
2022-12-04T00:53:53.956Z,-0.20
2022-12-04T00:56:24.371Z,-0.10
2022-12-04T00:58:54.390Z,-0.10
2022-12-04T01:01:24.120Z,-0.10
2022-12-04T01:03:52.802Z,0.00
2022-12-04T01:06:25.386Z,-0.10
2022-12-04T01:08:55.138Z,-0.10
2022-12-04T01:11:25.358Z,-0.10
2022-12-04T01:13:53.664Z,0.00
2022-12-04T01:16:25.532Z,0.00
2022-12-04T01:18:53.844Z,0.00
2022-12-04T01:21:22.326Z,0.00
2022-12-04T01:23:51.812Z,-0.10
2022-12-04T01:26:20.120Z,-0.10
2022-12-04T01:28:48.332Z,-0.10
2022-12-04T01:31:19.149Z,-0.10
2022-12-04T01:33:47.973Z,-0.10
2022-12-04T01:36:18.527Z,-0.10
2022-12-04T01:38:46.839Z,-0.20
2022-12-04T01:41:18.870Z,-0.20
2022-12-04T01:44:17.833Z,-0.20
2022-12-04T01:46:47.403Z,-0.20
2022-12-04T01:49:20.102Z,-0.20
2022-12-04T01:51:55.780Z,-0.20
2022-12-04T01:54:29.098Z,-0.20
2022-12-04T01:57:03.469Z,-0.20
2022-12-04T01:59:35.914Z,-0.20
2022-12-04T02:02:08.864Z,-0.30
2022-12-04T02:04:38.382Z,-0.20
2022-12-04T02:07:06.547Z,-0.20
2022-12-04T02:09:36.086Z,-0.30
2022-12-04T02:12:19.286Z,-0.20
2022-12-04T02:14:56.537Z,-0.20
2022-12-04T02:17:33.362Z,-0.10
2022-12-04T02:20:22.355Z,-0.20
2022-12-04T02:23:21.514Z,-0.20
2022-12-04T02:25:55.551Z,-0.20
2022-12-04T02:28:29.625Z,-0.20
2022-12-04T02:31:08.598Z,-0.20
2022-12-04T02:33:42.571Z,-0.20
2022-12-04T02:36:17.706Z,-0.20
2022-12-04T02:38:50.387Z,-0.20
2022-12-04T02:41:23.107Z,-0.20
2022-12-04T02:43:56.942Z,-0.30
2022-12-04T02:46:29.791Z,-0.30
2022-12-04T02:49:02.942Z,-0.30
2022-12-04T02:51:35.633Z,-0.20
2022-12-04T02:54:35.201Z,-0.20
2022-12-04T02:57:07.479Z,-0.20
2022-12-04T02:59:40.710Z,-0.20
2022-12-04T03:02:11.959Z,-0.20
2022-12-04T03:04:41.104Z,-0.20
2022-12-04T03:07:15.759Z,-0.30
2022-12-04T03:09:52.583Z,-0.30
2022-12-04T03:12:24.886Z,-0.30
2022-12-04T03:15:01.491Z,-0.30
2022-12-04T03:17:35.533Z,-0.40
2022-12-04T03:20:09.803Z,-0.30
2022-12-04T03:23:16.820Z,-0.30
2022-12-04T03:25:49.674Z,-0.30
2022-12-04T03:28:34.531Z,-0.40
2022-12-04T03:31:08.072Z,-0.40
2022-12-04T03:33:42.029Z,-0.30
2022-12-04T03:36:17.712Z,-0.40
2022-12-04T03:38:50.194Z,-0.30
2022-12-04T03:41:27.204Z,-0.30
2022-12-04T03:44:00.853Z,-0.20
2022-12-04T03:46:36.122Z,-0.30
2022-12-04T03:49:10.372Z,-0.30
2022-12-04T03:51:43.268Z,-0.30
2022-12-04T03:54:15.972Z,-0.30
2022-12-04T03:56:49.051Z,-0.40
2022-12-04T03:59:21.445Z,-0.30
2022-12-04T04:01:53.131Z,-0.20
2022-12-04T04:04:25.630Z,-0.30
2022-12-04T04:06:58.207Z,-0.20
2022-12-04T04:09:28.448Z,-0.30
2022-12-04T04:12:01.725Z,-0.20
2022-12-04T04:14:53.627Z,-0.20
2022-12-04T04:17:46.342Z,-0.20
2022-12-04T04:20:37.435Z,-0.20
2022-12-04T04:23:27.955Z,-0.30
2022-12-04T04:25:59.084Z,-0.30
2022-12-04T04:28:32.681Z,-0.30
2022-12-04T04:31:13.446Z,-0.30
2022-12-04T04:33:50.341Z,-0.40
2022-12-04T04:36:25.548Z,-0.30
2022-12-04T04:39:03.290Z,-0.30
2022-12-04T04:41:40.418Z,-0.30
2022-12-04T04:44:19.096Z,-0.20
2022-12-04T04:46:52.171Z,-0.20
2022-12-04T04:49:27.078Z,-0.30
2022-12-04T04:51:56.220Z,-0.30
2022-12-04T04:54:24.994Z,-0.30
2022-12-04T04:56:53.052Z,-0.30
2022-12-04T04:59:21.141Z,-0.30
2022-12-04T05:01:49.796Z,-0.30
2022-12-04T05:04:44.897Z,-0.30
2022-12-04T05:07:13.191Z,-0.30
2022-12-04T05:09:41.649Z,-0.30
2022-12-04T05:12:10.213Z,-0.20
2022-12-04T05:14:38.301Z,-0.20
2022-12-04T05:17:12.408Z,-0.20
2022-12-04T05:19:55.411Z,-0.30
2022-12-04T05:22:26.034Z,-0.30
2022-12-04T05:24:54.330Z,-0.30
2022-12-04T05:27:22.829Z,-0.30
2022-12-04T05:29:54.023Z,-0.30
2022-12-04T05:32:23.119Z,-0.30
2022-12-04T05:34:53.738Z,-0.30
2022-12-04T05:37:22.397Z,-0.30
2022-12-04T05:40:22.495Z,-0.20
2022-12-04T05:42:50.794Z,-0.20
2022-12-04T05:45:19.102Z,-0.20
2022-12-04T05:47:47.360Z,-0.10
2022-12-04T05:50:17.030Z,-0.10
2022-12-04T05:52:45.115Z,-0.10
2022-12-04T05:55:13.621Z,-0.10
2022-12-04T05:57:48.002Z,0.00
2022-12-04T06:00:18.208Z,0.00
2022-12-04T06:02:46.730Z,0.00
2022-12-04T06:05:17.343Z,0.00
2022-12-04T06:07:45.669Z,0.00
2022-12-04T06:10:13.871Z,0.00
2022-12-04T06:12:41.960Z,0.00
2022-12-04T06:15:10.755Z,0.00
2022-12-04T06:17:38.934Z,0.00
2022-12-04T06:20:11.707Z,0.00
2022-12-04T06:22:48.388Z,0.00
2022-12-04T06:25:17.055Z,-0.10
2022-12-04T06:27:45.005Z,0.00
2022-12-04T06:30:13.832Z,-0.10
2022-12-04T06:32:42.104Z,0.00
2022-12-04T06:35:11.808Z,-0.10
2022-12-04T06:37:39.890Z,-0.10
2022-12-04T06:40:10.737Z,0.00
2022-12-04T06:42:38.805Z,-0.10
2022-12-04T06:45:07.880Z,-0.10
2022-12-04T06:47:36.652Z,0.00
2022-12-04T06:50:05.697Z,0.00
2022-12-04T06:52:36.871Z,-0.10
2022-12-04T06:55:05.304Z,-0.10
2022-12-04T06:57:34.929Z,-0.10
2022-12-04T07:00:02.997Z,-0.10
2022-12-04T07:02:38.688Z,-0.10
2022-12-04T07:05:07.615Z,0.00
2022-12-04T07:07:35.936Z,0.00
2022-12-04T07:10:04.538Z,0.00
2022-12-04T07:12:34.201Z,0.00
2022-12-04T07:15:02.360Z,0.00
2022-12-04T07:17:30.874Z,0.10
2022-12-04T07:19:59.194Z,0.10
2022-12-04T07:22:28.218Z,0.00
2022-12-04T07:24:56.515Z,0.10
2022-12-04T07:27:24.697Z,0.10
2022-12-04T07:30:15.810Z,0.20
2022-12-04T07:32:44.257Z,0.20
2022-12-04T07:35:12.323Z,0.20
2022-12-04T07:37:40.391Z,0.20
2022-12-04T07:40:10.354Z,0.20
2022-12-04T07:42:38.777Z,0.30
2022-12-04T07:45:08.076Z,0.20
2022-12-04T07:47:38.052Z,0.20
2022-12-04T07:50:39.199Z,0.20
2022-12-04T07:53:07.541Z,0.20
2022-12-04T07:55:35.570Z,0.30
2022-12-04T07:58:03.699Z,0.30
2022-12-04T08:00:31.776Z,0.30
2022-12-04T08:03:04.193Z,0.30
2022-12-04T08:05:33.371Z,0.40
2022-12-04T08:08:01.509Z,0.40
2022-12-04T08:10:29.900Z,0.40
2022-12-04T08:12:58.085Z,0.40
2022-12-04T08:15:26.134Z,0.40
2022-12-04T08:17:54.343Z,0.50
2022-12-04T08:20:23.787Z,0.50
2022-12-04T08:23:10.536Z,0.60
2022-12-04T08:25:40.290Z,0.70
2022-12-04T08:28:08.920Z,0.70
2022-12-04T08:30:37.494Z,0.70
2022-12-04T08:33:05.703Z,0.70
2022-12-04T08:35:35.790Z,0.70
2022-12-04T08:38:03.814Z,0.70
2022-12-04T08:40:52.605Z,0.70
2022-12-04T08:43:35.262Z,0.80
2022-12-04T08:46:07.094Z,0.70
2022-12-04T08:48:35.990Z,0.70
2022-12-04T08:51:08.729Z,0.70
2022-12-04T08:53:45.931Z,0.80
2022-12-04T08:56:14.604Z,0.70
2022-12-04T08:58:50.196Z,0.70
2022-12-04T09:01:20.695Z,0.80
2022-12-04T09:03:50.462Z,0.80
2022-12-04T09:06:23.296Z,0.80
2022-12-04T09:08:57.118Z,0.80
2022-12-04T09:11:28.021Z,0.80
2022-12-04T09:13:56.694Z,0.80
2022-12-04T09:16:26.137Z,0.80
2022-12-04T09:18:54.551Z,0.90
2022-12-04T09:21:34.806Z,1.00
2022-12-04T09:24:02.953Z,1.00
2022-12-04T09:26:32.811Z,1.00
2022-12-04T09:29:06.226Z,1.00
2022-12-04T09:31:34.797Z,1.00
2022-12-04T09:34:11.654Z,1.10
2022-12-04T09:36:46.631Z,1.20
2022-12-04T09:39:14.670Z,1.20
2022-12-04T09:42:21.746Z,1.20
2022-12-04T09:45:13.512Z,1.20
2022-12-04T09:47:45.411Z,1.30
2022-12-04T09:50:18.939Z,1.40
2022-12-04T09:52:57.499Z,1.40
2022-12-04T09:55:29.306Z,1.40
2022-12-04T09:58:02.404Z,1.40
2022-12-04T10:00:33.760Z,1.50
2022-12-04T10:03:05.660Z,1.50
2022-12-04T10:05:45.317Z,1.50
2022-12-04T10:08:24.016Z,1.50
2022-12-04T10:11:02.604Z,1.50
2022-12-04T10:13:58.342Z,1.50
2022-12-04T10:16:40.275Z,1.50
2022-12-04T10:19:16.843Z,1.50
2022-12-04T10:21:57.318Z,1.50
2022-12-04T10:24:38.912Z,1.60
2022-12-04T10:27:13.315Z,1.50
2022-12-04T10:29:58.924Z,1.60
2022-12-04T10:32:30.451Z,1.50
2022-12-04T10:35:04.249Z,1.60
2022-12-04T10:37:38.946Z,1.60
2022-12-04T10:40:17.591Z,1.70
2022-12-04T10:42:52.622Z,1.80
2022-12-04T10:45:22.544Z,1.80
2022-12-04T10:47:52.554Z,1.80
2022-12-04T10:50:23.015Z,1.80
2022-12-04T10:52:51.653Z,1.80
2022-12-04T10:55:31.982Z,1.90
2022-12-04T10:58:00.042Z,1.80
2022-12-04T11:00:30.689Z,1.90
2022-12-04T11:03:01.839Z,1.90
2022-12-04T11:05:33.233Z,2.00
2022-12-04T11:08:04.196Z,2.00
2022-12-04T11:10:37.154Z,2.00
2022-12-04T11:13:07.587Z,2.00
2022-12-04T11:15:37.163Z,1.90
2022-12-04T11:18:09.682Z,1.90
2022-12-04T11:20:50.577Z,2.00
2022-12-04T11:23:20.023Z,1.90
2022-12-04T11:25:57.305Z,1.80
2022-12-04T11:28:41.794Z,1.90
